createdAt,value
2022-10-26T00:01:03.000Z,1007.3
2022-10-26T00:02:19.000Z,1007.3
2022-10-26T00:03:35.000Z,1007.3
2022-10-26T00:04:51.000Z,1007.3
2022-10-26T00:06:07.000Z,1007.3
2022-10-26T00:07:28.909Z,1007.2
2022-10-26T00:08:40.000Z,1007.2
2022-10-26T00:09:55.000Z,1007.2
2022-10-26T00:11:11.000Z,1007.2
2022-10-26T00:12:35.704Z,1007.2
2022-10-26T00:13:44.000Z,1007.2
2022-10-26T00:15:00.000Z,1007.2
2022-10-26T00:16:16.000Z,1007.2
2022-10-26T00:17:32.000Z,1007.2
2022-10-26T00:18:48.000Z,1007.2
2022-10-26T00:20:05.000Z,1007.2
2022-10-26T00:21:23.070Z,1007.2
2022-10-26T00:22:37.000Z,1007.2
2022-10-26T00:23:53.000Z,1007.2
2022-10-26T00:25:59.655Z,1007.2
2022-10-26T00:26:25.000Z,1007.2
2022-10-26T00:27:41.000Z,1007.2
2022-10-26T00:28:57.000Z,1007.3
2022-10-26T00:30:13.000Z,1007.2
2022-10-26T00:31:29.000Z,1007.2
2022-10-26T00:32:46.000Z,1007.1
2022-10-26T00:34:02.000Z,1007.1
2022-10-26T00:35:18.000Z,1007.2
2022-10-26T00:36:34.000Z,1007.2
2022-10-26T00:37:50.000Z,1007.2
2022-10-26T00:39:07.000Z,1007.1
2022-10-26T00:40:23.000Z,1007.2
2022-10-26T00:41:39.000Z,1007.1
2022-10-26T00:42:54.000Z,1007.1
2022-10-26T00:44:10.000Z,1007.2
2022-10-26T00:45:27.000Z,1007.1
2022-10-26T00:46:43.000Z,1007.1
2022-10-26T00:47:59.000Z,1007.1
2022-10-26T00:49:15.000Z,1007.1
2022-10-26T00:50:43.593Z,1007.1
2022-10-26T00:51:48.000Z,1007.1
2022-10-26T00:53:04.000Z,1007.1
2022-10-26T00:54:20.000Z,1007.1
2022-10-26T00:55:36.000Z,1007.1
2022-10-26T00:56:52.000Z,1007.1
2022-10-26T00:58:09.000Z,1007.1
2022-10-26T00:59:28.978Z,1007.1
2022-10-26T01:00:40.000Z,1007.1
2022-10-26T01:01:56.000Z,1007.1
2022-10-26T01:04:05.564Z,1007
2022-10-26T01:04:29.000Z,1007
2022-10-26T01:05:45.000Z,1007
2022-10-26T01:07:01.000Z,1007
2022-10-26T01:08:17.000Z,1007
2022-10-26T01:09:33.000Z,1007
2022-10-26T01:10:50.000Z,1006.9
2022-10-26T01:12:06.000Z,1007
2022-10-26T01:13:22.000Z,1007
2022-10-26T01:14:38.000Z,1006.9
2022-10-26T01:15:53.000Z,1007
2022-10-26T01:17:10.000Z,1006.9
2022-10-26T01:18:26.000Z,1006.9
2022-10-26T01:19:42.000Z,1006.9
2022-10-26T01:20:58.000Z,1006.9
2022-10-26T01:22:14.000Z,1006.8
2022-10-26T01:23:30.000Z,1006.8
2022-10-26T01:24:47.000Z,1006.8
2022-10-26T01:26:03.000Z,1006.8
2022-10-26T01:27:19.000Z,1006.8
2022-10-26T01:28:35.000Z,1006.8
2022-10-26T01:29:51.000Z,1006.8
2022-10-26T01:31:08.000Z,1006.8
2022-10-26T01:32:23.000Z,1006.8
2022-10-26T01:33:39.000Z,1006.8
2022-10-26T01:34:55.000Z,1006.8
2022-10-26T01:36:11.000Z,1006.7
2022-10-26T01:37:28.000Z,1006.8
2022-10-26T01:38:44.000Z,1006.8
2022-10-26T01:40:00.000Z,1006.7
2022-10-26T01:41:16.000Z,1006.7
2022-10-26T01:42:32.000Z,1006.6
2022-10-26T01:43:49.000Z,1006.7
2022-10-26T01:45:05.000Z,1006.6
2022-10-26T01:46:21.000Z,1006.6
2022-10-26T01:47:37.000Z,1006.6
2022-10-26T01:48:52.000Z,1006.6
2022-10-26T01:50:09.000Z,1006.6
2022-10-26T01:51:25.000Z,1006.6
2022-10-26T01:52:41.000Z,1006.6
2022-10-26T01:54:35.423Z,1006.6
2022-10-26T01:55:13.000Z,1006.6
2022-10-26T01:56:30.000Z,1006.5
2022-10-26T01:57:46.000Z,1006.5
2022-10-26T01:59:02.000Z,1006.5
2022-10-26T02:00:18.000Z,1006.5
2022-10-26T02:01:34.000Z,1006.5
2022-10-26T02:02:51.000Z,1006.5
2022-10-26T02:04:07.000Z,1006.5
2022-10-26T02:05:22.000Z,1006.5
2022-10-26T02:06:57.390Z,1006.5
2022-10-26T02:07:54.000Z,1006.5
2022-10-26T02:09:11.000Z,1006.4
2022-10-26T02:10:27.000Z,1006.4
2022-10-26T02:11:43.000Z,1006.4
2022-10-26T02:12:59.000Z,1006.4
2022-10-26T02:14:15.000Z,1006.4
2022-10-26T02:15:32.000Z,1006.3
2022-10-26T02:16:48.000Z,1006.4
2022-10-26T02:18:04.000Z,1006.3
2022-10-26T02:19:20.000Z,1006.2
2022-10-26T02:20:36.000Z,1006.3
2022-10-26T02:21:52.000Z,1006.3
2022-10-26T02:23:08.000Z,1006.2
2022-10-26T02:24:24.000Z,1006.3
2022-10-26T02:25:40.000Z,1006.3
2022-10-26T02:26:56.000Z,1006.3
2022-10-26T02:28:13.000Z,1006.2
2022-10-26T02:29:29.000Z,1006.2
2022-10-26T02:30:45.000Z,1006.2
2022-10-26T02:32:43.311Z,1006.3
2022-10-26T02:33:17.000Z,1006.2
2022-10-26T02:34:34.000Z,1006.2
2022-10-26T02:36:20.896Z,1006.2
2022-10-26T02:37:06.000Z,1006.2
2022-10-26T02:38:21.000Z,1006.2
2022-10-26T02:39:37.000Z,1006.1
2022-10-26T02:40:54.000Z,1006.2
2022-10-26T02:42:10.000Z,1006.1
2022-10-26T02:43:26.000Z,1006.1
2022-10-26T02:44:42.000Z,1006.2
2022-10-26T02:45:58.000Z,1006.1
2022-10-26T02:47:14.000Z,1006.1
2022-10-26T02:48:31.000Z,1006.1
2022-10-26T02:49:47.000Z,1006.1
2022-10-26T02:51:03.000Z,1006
2022-10-26T02:52:19.000Z,1006
2022-10-26T02:53:35.000Z,1006.1
2022-10-26T02:54:51.000Z,1006.1
2022-10-26T02:56:07.000Z,1006
2022-10-26T02:57:27.244Z,1006.1
2022-10-26T02:58:39.000Z,1006
2022-10-26T02:59:55.000Z,1006.1
2022-10-26T03:01:12.000Z,1006.1
2022-10-26T03:02:37.024Z,1006.1
2022-10-26T03:03:44.000Z,1006.1
2022-10-26T03:05:00.000Z,1006
2022-10-26T03:06:16.000Z,1006
2022-10-26T03:07:33.000Z,1006
2022-10-26T03:09:19.000Z,1006
2022-10-26T03:10:05.000Z,1006
2022-10-26T03:11:20.000Z,1006
2022-10-26T03:12:36.000Z,1006
2022-10-26T03:13:53.000Z,1006
2022-10-26T03:15:09.000Z,1006
2022-10-26T03:16:25.000Z,1006
2022-10-26T03:17:41.000Z,1006
2022-10-26T03:18:57.000Z,1006
2022-10-26T03:20:14.000Z,1006
2022-10-26T03:21:30.000Z,1005.9
2022-10-26T03:22:46.000Z,1005.9
2022-10-26T03:24:02.000Z,1005.9
2022-10-26T03:25:18.000Z,1006
2022-10-26T03:26:35.000Z,1006
2022-10-26T03:27:50.000Z,1006
2022-10-26T03:29:06.000Z,1005.9
2022-10-26T03:30:22.000Z,1006
2022-10-26T03:31:38.000Z,1005.9
2022-10-26T03:32:55.000Z,1006.1
2022-10-26T03:34:11.000Z,1006
2022-10-26T03:35:33.152Z,1006
2022-10-26T03:36:42.000Z,1006
2022-10-26T03:37:58.000Z,1005.9
2022-10-26T03:39:15.000Z,1005.9
2022-10-26T03:40:31.000Z,1005.9
2022-10-26T03:41:47.000Z,1005.9
2022-10-26T03:43:03.000Z,1005.9
2022-10-26T03:44:19.000Z,1005.8
2022-10-26T03:45:36.000Z,1005.9
2022-10-26T03:46:52.000Z,1005.9
2022-10-26T03:48:08.000Z,1005.8
2022-10-26T03:49:24.000Z,1005.8
2022-10-26T03:50:40.000Z,1005.8
2022-10-26T03:51:56.000Z,1005.9
2022-10-26T03:53:12.000Z,1005.8
2022-10-26T03:54:28.000Z,1005.8
2022-10-26T03:55:44.000Z,1005.9
2022-10-26T03:57:00.000Z,1005.9
2022-10-26T03:58:17.000Z,1005.9
2022-10-26T03:59:33.000Z,1005.8
2022-10-26T04:01:19.035Z,1005.9
2022-10-26T04:02:05.000Z,1005.9
2022-10-26T04:03:21.000Z,1005.8
2022-10-26T04:04:37.000Z,1005.8
2022-10-26T04:05:54.000Z,1005.8
2022-10-26T04:07:10.000Z,1005.9
2022-10-26T04:08:25.000Z,1005.8
2022-10-26T04:09:41.000Z,1005.9
2022-10-26T04:10:57.000Z,1005.9
2022-10-26T04:12:14.000Z,1005.8
2022-10-26T04:13:40.981Z,1005.8
2022-10-26T04:14:46.000Z,1005.8
2022-10-26T04:16:02.000Z,1005.8
2022-10-26T04:17:18.000Z,1005.8
2022-10-26T04:18:35.000Z,1005.7
2022-10-26T04:19:51.000Z,1005.8
2022-10-26T04:21:07.000Z,1005.8
2022-10-26T04:22:23.000Z,1005.8
2022-10-26T04:23:39.000Z,1005.8
2022-10-26T04:24:55.000Z,1005.7
2022-10-26T04:26:11.000Z,1005.8
2022-10-26T04:27:27.000Z,1005.8
2022-10-26T04:28:43.000Z,1005.7
2022-10-26T04:29:59.000Z,1005.7
2022-10-26T04:31:16.000Z,1005.7
2022-10-26T04:32:32.000Z,1005.7
2022-10-26T04:33:48.000Z,1005.7
2022-10-26T04:35:04.000Z,1005.8
2022-10-26T04:36:20.000Z,1005.7
2022-10-26T04:37:37.000Z,1005.7
2022-10-26T04:39:26.856Z,1005.7
2022-10-26T04:40:09.000Z,1005.7
2022-10-26T04:41:24.000Z,1005.7
2022-10-26T04:42:40.000Z,1005.7
2022-10-26T04:43:57.000Z,1005.7
2022-10-26T04:46:06.838Z,1005.7
2022-10-26T04:46:29.000Z,1005.7
2022-10-26T04:48:11.224Z,1005.7
2022-10-26T04:49:01.000Z,1005.7
2022-10-26T04:50:17.000Z,1005.7
2022-10-26T04:51:48.803Z,1005.7
2022-10-26T04:52:50.000Z,1005.7
2022-10-26T04:54:06.000Z,1005.7
2022-10-26T04:55:22.000Z,1005.8
2022-10-26T04:56:38.000Z,1005.7
2022-10-26T04:57:54.000Z,1005.7
2022-10-26T04:59:10.000Z,1005.7
2022-10-26T05:00:26.000Z,1005.7
2022-10-26T05:01:42.000Z,1005.7
2022-10-26T05:02:58.000Z,1005.7
2022-10-26T05:04:15.000Z,1005.7
2022-10-26T05:05:31.000Z,1005.7
2022-10-26T05:06:47.000Z,1005.8
2022-10-26T05:08:03.000Z,1005.8
2022-10-26T05:09:19.000Z,1005.8
2022-10-26T05:10:36.000Z,1005.8
2022-10-26T05:11:52.000Z,1005.8
2022-10-26T05:13:08.000Z,1005.7
2022-10-26T05:14:23.000Z,1005.8
2022-10-26T05:15:39.000Z,1005.8
2022-10-26T05:16:56.000Z,1005.7
2022-10-26T05:18:12.000Z,1005.8
2022-10-26T05:19:28.000Z,1005.8
2022-10-26T05:20:44.000Z,1005.8
2022-10-26T05:22:00.000Z,1005.8
2022-10-26T05:23:17.000Z,1005.8
2022-10-26T05:24:33.000Z,1005.9
2022-10-26T05:25:49.000Z,1005.8
2022-10-26T05:27:05.000Z,1005.9
2022-10-26T05:28:21.000Z,1005.8
2022-10-26T05:29:55.627Z,1005.8
2022-10-26T05:30:53.000Z,1005.8
2022-10-26T05:32:09.000Z,1005.8
2022-10-26T05:33:25.000Z,1005.7
2022-10-26T05:34:41.000Z,1005.9
2022-10-26T05:35:58.000Z,1005.9
2022-10-26T05:37:14.000Z,1005.8
2022-10-26T05:38:30.000Z,1005.8
2022-10-26T05:39:46.000Z,1005.8
2022-10-26T05:41:02.000Z,1005.8
2022-10-26T05:42:17.573Z,1005.8
2022-10-26T05:43:35.000Z,1005.7
2022-10-26T05:44:51.000Z,1005.9
2022-10-26T05:46:07.000Z,1005.9
2022-10-26T05:47:22.000Z,1005.9
2022-10-26T05:48:38.000Z,1005.9
2022-10-26T05:49:55.000Z,1005.9
2022-10-26T05:51:11.000Z,1005.9
2022-10-26T05:52:27.000Z,1005.9
2022-10-26T05:53:43.000Z,1005.9
2022-10-26T05:54:59.000Z,1005.9
2022-10-26T05:57:12.711Z,1006
2022-10-26T05:57:32.000Z,1006
2022-10-26T05:58:48.000Z,1005.9
2022-10-26T06:00:04.000Z,1006
2022-10-26T06:01:20.000Z,1005.9
2022-10-26T06:02:37.000Z,1006
2022-10-26T06:03:52.000Z,1006
2022-10-26T06:05:57.080Z,1006
2022-10-26T06:06:24.000Z,1006
2022-10-26T06:07:40.000Z,1006
2022-10-26T06:08:57.000Z,1006
2022-10-26T06:10:13.000Z,1006.1
2022-10-26T06:11:29.000Z,1006.1
2022-10-26T06:12:45.000Z,1006.1
2022-10-26T06:14:01.000Z,1006.1
2022-10-26T06:15:18.000Z,1006.1
2022-10-26T06:16:34.000Z,1006.1
2022-10-26T06:17:50.000Z,1006.1
2022-10-26T06:19:06.000Z,1006.1
2022-10-26T06:20:21.000Z,1006.1
2022-10-26T06:21:38.000Z,1006.1
2022-10-26T06:22:54.000Z,1006.1
2022-10-26T06:24:10.000Z,1006.1
2022-10-26T06:25:26.000Z,1006.1
2022-10-26T06:26:42.000Z,1006.1
2022-10-26T06:27:58.000Z,1006
2022-10-26T06:29:15.000Z,1006.1
2022-10-26T06:30:31.000Z,1006
2022-10-26T06:31:47.000Z,1006
2022-10-26T06:33:03.000Z,1006.1
2022-10-26T06:34:19.000Z,1006.1
2022-10-26T06:35:36.000Z,1006
2022-10-26T06:36:51.000Z,1006
2022-10-26T06:38:07.000Z,1006
2022-10-26T06:39:23.000Z,1006
2022-10-26T06:40:39.000Z,1006
2022-10-26T06:41:56.000Z,1006
2022-10-26T06:43:12.000Z,1006
2022-10-26T06:44:28.000Z,1006
2022-10-26T06:45:44.000Z,1006
2022-10-26T06:47:00.000Z,1006
2022-10-26T06:48:17.000Z,1006
2022-10-26T06:49:33.000Z,1006
2022-10-26T06:50:49.000Z,1006
2022-10-26T06:52:05.000Z,1006
2022-10-26T06:53:20.000Z,1006.1
2022-10-26T06:54:37.000Z,1006
2022-10-26T06:55:53.000Z,1006.1
2022-10-26T06:57:09.000Z,1006.1
2022-10-26T06:58:31.233Z,1006.1
2022-10-26T06:59:41.000Z,1006.1
2022-10-26T07:00:58.000Z,1006.1
2022-10-26T07:02:14.000Z,1006.1
2022-10-26T07:03:30.000Z,1006.1
2022-10-26T07:04:46.000Z,1006.1
2022-10-26T07:06:02.000Z,1006.1
2022-10-26T07:07:19.000Z,1006.1
2022-10-26T07:08:35.000Z,1006.1
2022-10-26T07:09:50.000Z,1006.2
2022-10-26T07:11:06.000Z,1006.2
2022-10-26T07:12:22.000Z,1006.2
2022-10-26T07:13:38.000Z,1006.2
2022-10-26T07:14:55.000Z,1006.2
2022-10-26T07:16:11.000Z,1006.3
2022-10-26T07:17:27.000Z,1006.2
2022-10-26T07:18:43.000Z,1006.2
2022-10-26T07:19:59.000Z,1006.2
2022-10-26T07:21:16.000Z,1006.2
2022-10-26T07:22:32.000Z,1006.2
2022-10-26T07:24:17.108Z,1006.2
2022-10-26T07:25:04.000Z,1006.2
2022-10-26T07:26:19.000Z,1006.2
2022-10-26T07:27:36.000Z,1006.2
2022-10-26T07:28:52.000Z,1006.2
2022-10-26T07:30:08.000Z,1006.2
2022-10-26T07:31:24.000Z,1006.2
2022-10-26T07:32:40.000Z,1006.2
2022-10-26T07:33:57.000Z,1006.2
2022-10-26T07:35:13.000Z,1006.3
2022-10-26T07:36:39.056Z,1006.3
2022-10-26T07:37:45.000Z,1006.2
2022-10-26T07:39:01.000Z,1006.3
2022-10-26T07:40:18.000Z,1006.3
2022-10-26T07:41:34.000Z,1006.3
2022-10-26T07:42:49.000Z,1006.3
2022-10-26T07:44:05.000Z,1006.3
2022-10-26T07:45:21.000Z,1006.3
2022-10-26T07:46:38.000Z,1006.3
2022-10-26T07:47:54.000Z,1006.3
2022-10-26T07:49:10.000Z,1006.3
2022-10-26T07:50:31.217Z,1006.4
2022-10-26T07:51:41.000Z,1006.3
2022-10-26T07:52:58.000Z,1006.3
2022-10-26T07:54:14.000Z,1006.3
2022-10-26T07:55:30.000Z,1006.3
2022-10-26T07:56:46.000Z,1006.3
2022-10-26T07:58:02.000Z,1006.3
2022-10-26T07:59:19.000Z,1006.3
2022-10-26T08:00:35.000Z,1006.3
2022-10-26T08:01:51.000Z,1006.3
2022-10-26T08:03:07.000Z,1006.3
2022-10-26T08:04:23.000Z,1006.3
2022-10-26T08:05:39.000Z,1006.3
2022-10-26T08:06:55.000Z,1006.3
2022-10-26T08:09:02.935Z,1006.3
2022-10-26T08:09:27.000Z,1006.2
2022-10-26T08:10:43.000Z,1006.3
2022-10-26T08:11:59.000Z,1006.3
2022-10-26T08:13:16.000Z,1006.3
2022-10-26T08:14:32.000Z,1006.3
2022-10-26T08:15:48.000Z,1006.3
2022-10-26T08:18:04.229Z,1006.3
2022-10-26T08:18:28.000Z,1006.3
2022-10-26T08:19:45.000Z,1006.4
2022-10-26T08:21:01.000Z,1006.2
2022-10-26T08:22:17.000Z,1006.2
2022-10-26T08:23:33.000Z,1006.2
2022-10-26T08:24:49.000Z,1006.2
2022-10-26T08:26:06.000Z,1006.2
2022-10-26T08:27:22.000Z,1006.2
2022-10-26T08:29:11.040Z,1006.2
2022-10-26T08:29:54.000Z,1006.2
2022-10-26T08:31:10.000Z,1006.2
2022-10-26T08:32:27.000Z,1006.2
2022-10-26T08:33:43.000Z,1006.2
2022-10-26T08:34:59.000Z,1006.2
2022-10-26T08:36:15.000Z,1006.2
2022-10-26T08:37:31.000Z,1006.2
2022-10-26T08:38:48.000Z,1006.3
2022-10-26T08:41:02.786Z,1006.2
2022-10-26T08:41:34.979Z,1006.2
2022-10-26T08:42:36.000Z,1006.2
2022-10-26T08:43:51.000Z,1006.2
2022-10-26T08:45:07.000Z,1006.1
2022-10-26T08:46:23.000Z,1006.1
2022-10-26T08:47:39.000Z,1006.1
2022-10-26T08:48:55.000Z,1006.1
2022-10-26T08:50:11.000Z,1006.1
2022-10-26T08:51:28.000Z,1006.1
2022-10-26T08:52:44.000Z,1006.1
2022-10-26T08:54:54.971Z,1006.1
2022-10-26T08:55:16.000Z,1006.1
2022-10-26T08:56:32.000Z,1006
2022-10-26T08:57:49.000Z,1006
2022-10-26T08:59:05.000Z,1005.9
2022-10-26T09:00:21.000Z,1005.9
2022-10-26T09:01:36.000Z,1005.9
2022-10-26T09:02:52.000Z,1005.8
2022-10-26T09:04:09.000Z,1005.8
2022-10-26T09:05:25.000Z,1005.7
2022-10-26T09:06:41.000Z,1005.7
2022-10-26T09:07:57.000Z,1005.7
2022-10-26T09:09:13.000Z,1005.7
2022-10-26T09:10:29.000Z,1005.7
2022-10-26T09:11:44.000Z,1005.8
2022-10-26T09:13:00.000Z,1005.8
2022-10-26T09:14:16.000Z,1005.8
2022-10-26T09:15:32.000Z,1005.8
2022-10-26T09:16:49.000Z,1005.8
2022-10-26T09:18:05.000Z,1005.8
2022-10-26T09:19:36.932Z,1005.9
2022-10-26T09:20:37.000Z,1006
2022-10-26T09:21:53.000Z,1006.1
2022-10-26T09:23:10.000Z,1006.1
2022-10-26T09:24:26.000Z,1006.2
2022-10-26T09:25:42.000Z,1006.3
2022-10-26T09:26:58.000Z,1006.3
2022-10-26T09:28:13.000Z,1006.3
2022-10-26T09:29:30.000Z,1006.3
2022-10-26T09:30:46.000Z,1006.3
2022-10-26T09:32:02.000Z,1006.3
2022-10-26T09:33:18.000Z,1006.3
2022-10-26T09:34:34.000Z,1006.3
2022-10-26T09:35:51.000Z,1006.3
2022-10-26T09:37:06.000Z,1006.3
2022-10-26T09:38:21.000Z,1006.3
2022-10-26T09:39:37.000Z,1006.2
2022-10-26T09:41:41.305Z,1006.2
2022-10-26T09:42:10.000Z,1006.3
2022-10-26T09:43:26.000Z,1006.3
2022-10-26T09:44:42.000Z,1006.3
2022-10-26T09:45:58.000Z,1006.3
2022-10-26T09:47:14.000Z,1006.4
2022-10-26T09:48:31.000Z,1006.3
2022-10-26T09:49:47.000Z,1006.3
2022-10-26T09:51:03.000Z,1006.3
2022-10-26T09:52:19.000Z,1006.3
2022-10-26T09:53:35.000Z,1006.4
2022-10-26T09:54:51.000Z,1006.4
2022-10-26T09:56:07.000Z,1006.4
2022-10-26T09:57:23.000Z,1006.5
2022-10-26T09:58:39.000Z,1006.5
2022-10-26T10:00:45.258Z,1006.5
2022-10-26T10:01:12.000Z,1006.4
2022-10-26T10:02:28.000Z,1006.5
2022-10-26T10:03:43.000Z,1006.5
2022-10-26T10:04:58.000Z,1006.4
2022-10-26T10:06:14.000Z,1006.5
2022-10-26T10:07:31.000Z,1006.4
2022-10-26T10:08:47.000Z,1006.5
2022-10-26T10:10:03.000Z,1006.5
2022-10-26T10:11:19.000Z,1006.6
2022-10-26T10:12:35.000Z,1006.6
2022-10-26T10:14:37.458Z,1006.6
2022-10-26T10:15:08.000Z,1006.6
2022-10-26T10:16:24.000Z,1006.5
2022-10-26T10:17:40.000Z,1006.5
2022-10-26T10:18:56.000Z,1006.6
2022-10-26T10:20:12.000Z,1006.5
2022-10-26T10:21:28.000Z,1006.7
2022-10-26T10:23:22.840Z,1006.6
2022-10-26T10:24:00.000Z,1006.6
2022-10-26T10:25:16.000Z,1006.6
2022-10-26T10:26:32.000Z,1006.7
2022-10-26T10:27:49.000Z,1006.7
2022-10-26T10:29:05.000Z,1006.6
2022-10-26T10:30:21.000Z,1006.7
2022-10-26T10:31:37.000Z,1006.7
2022-10-26T10:32:53.000Z,1006.7
2022-10-26T10:34:10.000Z,1006.7
2022-10-26T10:35:26.000Z,1006.7
2022-10-26T10:36:42.000Z,1006.8
2022-10-26T10:37:57.000Z,1006.8
2022-10-26T10:39:13.000Z,1006.8
2022-10-26T10:40:30.000Z,1006.8
2022-10-26T10:41:46.000Z,1006.7
2022-10-26T10:43:02.000Z,1006.7
2022-10-26T10:44:18.000Z,1006.8
2022-10-26T10:45:34.000Z,1006.8
2022-10-26T10:46:51.000Z,1006.8
2022-10-26T10:48:07.000Z,1006.8
2022-10-26T10:49:23.000Z,1006.8
2022-10-26T10:50:39.000Z,1006.9
2022-10-26T10:51:55.000Z,1006.8
2022-10-26T10:53:12.000Z,1006.8
2022-10-26T10:54:27.000Z,1006.9
2022-10-26T10:55:43.000Z,1006.8
2022-10-26T10:56:59.000Z,1006.9
2022-10-26T10:58:15.000Z,1006.8
2022-10-26T10:59:32.000Z,1006.8
2022-10-26T11:00:48.000Z,1006.8
2022-10-26T11:02:04.000Z,1006.8
2022-10-26T11:03:20.000Z,1006.8
2022-10-26T11:04:36.000Z,1006.8
2022-10-26T11:05:53.000Z,1006.8
2022-10-26T11:07:09.000Z,1006.8
2022-10-26T11:08:25.000Z,1006.8
2022-10-26T11:09:41.000Z,1006.8
2022-10-26T11:10:56.000Z,1006.8
2022-10-26T11:12:13.000Z,1006.8
2022-10-26T11:13:52.685Z,1006.9
2022-10-26T11:14:45.000Z,1006.9
2022-10-26T11:16:01.000Z,1006.8
2022-10-26T11:17:17.000Z,1006.9
2022-10-26T11:18:34.000Z,1006.8
2022-10-26T11:19:50.000Z,1006.8
2022-10-26T11:21:06.000Z,1006.8
2022-10-26T11:22:22.000Z,1006.8
2022-10-26T11:23:38.000Z,1006.8
2022-10-26T11:24:55.000Z,1006.8
2022-10-26T11:26:11.000Z,1006.9
2022-10-26T11:27:26.000Z,1006.8
2022-10-26T11:28:42.000Z,1006.8
2022-10-26T11:29:58.000Z,1006.8
2022-10-26T11:31:15.000Z,1006.7
2022-10-26T11:32:31.000Z,1006.7
2022-10-26T11:33:47.000Z,1006.7
2022-10-26T11:35:03.000Z,1006.7
2022-10-26T11:36:19.000Z,1006.8
2022-10-26T11:37:35.000Z,1006.8
2022-10-26T11:38:52.000Z,1006.8
2022-10-26T11:40:08.000Z,1006.8
2022-10-26T11:41:24.000Z,1006.8
2022-10-26T11:43:15.182Z,1006.8
2022-10-26T11:43:55.000Z,1006.8
2022-10-26T11:45:18.588Z,1006.8
2022-10-26T11:46:28.000Z,1006.8
2022-10-26T11:47:44.000Z,1006.8
2022-10-26T11:49:00.000Z,1006.7
2022-10-26T11:50:16.000Z,1006.8
2022-10-26T11:52:00.562Z,1006.7
2022-10-26T11:52:49.000Z,1006.7
2022-10-26T11:54:05.000Z,1006.7
2022-10-26T11:56:37.000Z,1006.8
2022-10-26T11:57:54.000Z,1006.8
2022-10-26T11:59:10.000Z,1006.8
2022-10-26T12:00:25.000Z,1006.9
2022-10-26T12:01:41.000Z,1006.9
2022-10-26T12:02:57.000Z,1007
2022-10-26T12:04:14.000Z,1006.9
2022-10-26T12:05:30.000Z,1007
2022-10-26T12:06:46.000Z,1006.9
2022-10-26T12:08:02.000Z,1006.9
2022-10-26T12:09:18.000Z,1006.9
2022-10-26T12:10:35.000Z,1007
2022-10-26T12:11:51.000Z,1007
2022-10-26T12:13:07.000Z,1007
2022-10-26T12:14:23.000Z,1007
2022-10-26T12:15:39.000Z,1007.1
2022-10-26T12:16:55.000Z,1007
2022-10-26T12:18:11.000Z,1007.1
2022-10-26T12:19:27.000Z,1007.1
2022-10-26T12:20:43.000Z,1007.1
2022-10-26T12:21:59.000Z,1007.2
2022-10-26T12:23:16.000Z,1007.2
2022-10-26T12:24:32.000Z,1007.2
2022-10-26T12:26:30.854Z,1007.2
2022-10-26T12:27:04.000Z,1007.2
2022-10-26T12:28:20.000Z,1007.3
2022-10-26T12:29:37.000Z,1007.2
2022-10-26T12:30:53.000Z,1007.3
2022-10-26T12:32:09.000Z,1007.4
2022-10-26T12:33:24.000Z,1007.4
2022-10-26T12:34:40.000Z,1007.3
2022-10-26T12:35:57.000Z,1007.4
2022-10-26T12:37:13.000Z,1007.4
2022-10-26T12:38:29.000Z,1007.4
2022-10-26T12:39:45.000Z,1007.5
2022-10-26T12:41:01.000Z,1007.5
2022-10-26T12:42:29.406Z,1007.5
2022-10-26T12:43:34.000Z,1007.3
2022-10-26T12:44:50.000Z,1007.4
2022-10-26T12:46:06.000Z,1007.4
2022-10-26T12:47:39.184Z,1007.5
2022-10-26T12:48:38.000Z,1007.5
2022-10-26T12:49:54.000Z,1007.3
2022-10-26T12:51:10.000Z,1007.5
2022-10-26T12:52:26.000Z,1007.5
2022-10-26T12:53:42.000Z,1007.6
2022-10-26T12:54:58.000Z,1007.6
2022-10-26T12:56:15.000Z,1007.6
2022-10-26T12:57:31.000Z,1007.7
2022-10-26T12:58:47.000Z,1007.7
2022-10-26T13:00:03.000Z,1007.7
2022-10-26T13:01:19.000Z,1007.7
2022-10-26T13:02:36.000Z,1007.7
2022-10-26T13:03:52.000Z,1007.8
2022-10-26T13:05:08.000Z,1007.7
2022-10-26T13:06:23.000Z,1007.7
2022-10-26T13:07:39.000Z,1007.8
2022-10-26T13:08:56.000Z,1007.7
2022-10-26T13:10:12.000Z,1007.8
2022-10-26T13:11:28.000Z,1007.8
2022-10-26T13:12:44.000Z,1007.8
2022-10-26T13:14:00.000Z,1007.8
2022-10-26T13:15:17.000Z,1007.8
2022-10-26T13:16:33.000Z,1007.8
2022-10-26T13:17:49.000Z,1007.8
2022-10-26T13:19:05.000Z,1007.8
2022-10-26T13:20:21.000Z,1007.8
2022-10-26T13:21:38.000Z,1007.8
2022-10-26T13:22:53.000Z,1007.8
2022-10-26T13:24:09.000Z,1007.8
2022-10-26T13:25:25.000Z,1007.7
2022-10-26T13:26:41.000Z,1007.7
2022-10-26T13:27:58.000Z,1007.8
2022-10-26T13:29:14.000Z,1007.7
2022-10-26T13:30:54.859Z,1007.7
2022-10-26T13:31:46.000Z,1007.7
2022-10-26T13:33:59.249Z,1007.8
2022-10-26T13:34:19.000Z,1007.8
2022-10-26T13:35:35.000Z,1007.9
2022-10-26T13:36:51.000Z,1007.9
2022-10-26T13:38:07.000Z,1007.9
2022-10-26T13:39:22.000Z,1007.8
2022-10-26T13:40:39.000Z,1007.9
2022-10-26T13:41:55.000Z,1007.9
2022-10-26T13:43:11.000Z,1007.9
2022-10-26T13:44:27.000Z,1008
2022-10-26T13:45:43.000Z,1008
2022-10-26T13:47:00.000Z,1008
2022-10-26T13:48:16.000Z,1008
2022-10-26T13:49:32.000Z,1008
2022-10-26T13:50:48.000Z,1008
2022-10-26T13:52:04.000Z,1008
2022-10-26T13:53:21.000Z,1008.1
2022-10-26T13:54:37.000Z,1008.1
2022-10-26T13:55:52.000Z,1008.1
2022-10-26T13:57:08.000Z,1008
2022-10-26T13:58:24.000Z,1008
2022-10-26T13:59:41.000Z,1008
2022-10-26T14:00:57.000Z,1008.1
2022-10-26T14:02:13.000Z,1008.1
2022-10-26T14:03:29.000Z,1008.1
2022-10-26T14:04:45.000Z,1008.1
2022-10-26T14:06:01.000Z,1008.1
2022-10-26T14:07:18.000Z,1008
2022-10-26T14:08:34.000Z,1008.1
2022-10-26T14:09:50.000Z,1008.1
2022-10-26T14:11:07.138Z,1008.1
2022-10-26T14:12:21.000Z,1008
2022-10-26T14:13:38.000Z,1008.1
2022-10-26T14:14:54.000Z,1008.1
2022-10-26T14:16:10.000Z,1008.1
2022-10-26T14:17:26.000Z,1008.1
2022-10-26T14:18:42.000Z,1008.1
2022-10-26T14:19:59.000Z,1008.1
2022-10-26T14:21:15.000Z,1008.1
2022-10-26T14:22:31.000Z,1008.1
2022-10-26T14:23:47.000Z,1008.2
2022-10-26T14:26:01.301Z,1008.2
2022-10-26T14:26:20.000Z,1008.1
2022-10-26T14:27:36.000Z,1008.2
2022-10-26T14:28:51.000Z,1008.2
2022-10-26T14:30:07.000Z,1008.2
2022-10-26T14:31:23.000Z,1008.1
2022-10-26T14:32:40.000Z,1008.1
2022-10-26T14:33:56.000Z,1008.1
2022-10-26T14:35:12.000Z,1008.1
2022-10-26T14:36:28.000Z,1008.1
2022-10-26T14:37:44.000Z,1008.2
2022-10-26T14:39:01.000Z,1008.3
2022-10-26T14:40:17.000Z,1008.3
2022-10-26T14:41:33.000Z,1008.3
2022-10-26T14:42:49.000Z,1008.4
2022-10-26T14:44:05.000Z,1008.3
2022-10-26T14:45:21.000Z,1008.4
2022-10-26T14:46:37.000Z,1008.4
2022-10-26T14:47:53.000Z,1008.4
2022-10-26T14:49:09.000Z,1008.4
2022-10-26T14:50:25.000Z,1008.4
2022-10-26T14:51:42.000Z,1008.4
2022-10-26T14:52:58.000Z,1008.4
2022-10-26T14:54:14.000Z,1008.5
2022-10-26T14:55:30.000Z,1008.4
2022-10-26T14:56:46.000Z,1008.4
2022-10-26T14:58:03.000Z,1008.5
2022-10-26T14:59:19.000Z,1008.5
2022-10-26T15:00:35.000Z,1008.5
2022-10-26T15:02:35.014Z,1008.5
2022-10-26T15:03:06.000Z,1008.5
2022-10-26T15:04:23.000Z,1008.5
2022-10-26T15:05:39.000Z,1008.5
2022-10-26T15:06:55.000Z,1008.6
2022-10-26T15:08:11.000Z,1008.6
2022-10-26T15:09:27.000Z,1008.5
2022-10-26T15:10:44.000Z,1008.5
2022-10-26T15:12:00.000Z,1008.5
2022-10-26T15:13:16.000Z,1008.6
2022-10-26T15:14:32.000Z,1008.6
2022-10-26T15:15:48.000Z,1008.6
2022-10-26T15:17:04.000Z,1008.6
2022-10-26T15:18:20.000Z,1008.7
2022-10-26T15:19:36.000Z,1008.7
2022-10-26T15:20:52.000Z,1008.7
2022-10-26T15:22:08.000Z,1008.7
2022-10-26T15:23:24.000Z,1008.7
2022-10-26T15:24:41.000Z,1008.7
2022-10-26T15:25:57.000Z,1008.8
2022-10-26T15:27:13.000Z,1008.8
2022-10-26T15:28:29.000Z,1008.9
2022-10-26T15:29:45.000Z,1008.8
2022-10-26T15:31:02.000Z,1008.9
2022-10-26T15:32:18.000Z,1008.9
2022-10-26T15:33:34.000Z,1008.9
2022-10-26T15:34:49.000Z,1008.9
2022-10-26T15:36:05.000Z,1008.8
2022-10-26T15:37:22.000Z,1008.9
2022-10-26T15:38:38.000Z,1008.9
2022-10-26T15:39:54.000Z,1008.9
2022-10-26T15:41:10.000Z,1008.9
2022-10-26T15:42:26.000Z,1009
2022-10-26T15:43:43.000Z,1009
2022-10-26T15:44:59.000Z,1009
2022-10-26T15:46:15.000Z,1009
2022-10-26T15:47:31.000Z,1009.1
2022-10-26T15:48:47.000Z,1009.1
2022-10-26T15:51:02.462Z,1009.1
2022-10-26T15:51:19.000Z,1009.1
2022-10-26T15:53:04.869Z,1009.1
2022-10-26T15:53:51.000Z,1009.1
2022-10-26T15:55:07.000Z,1009.1
2022-10-26T15:56:24.000Z,1009.1
2022-10-26T15:57:40.000Z,1009.2